ESST/TYF METAR and TAF weather

Enter ICAO airport designator
Station Type Date Time Source
ESST METAR 2023/01/29 19:50 UTC NOAA

ESST 291950Z AUTO 21011G23KT 160V250 9999 OVC016/// 06/03 Q0985


Station Type Date Time Source
ESST Decoded METAR 2023/01/29 19:50 UTC NOAA

Station name not available
Jan 29, 2023 - 02:50 PM EST / 2023.01.29 1950 UTC
Wind: from the SSW (210 degrees) at 13 MPH (11 KT) gusting to 26 MPH (23 KT) (direction variable):0
Visibility: greater than 7 mile(s):0
Sky conditions: overcast
Temperature: 42 F (6 C)
Dew Point: 37 F (3 C)
Relative Humidity: 81%
Pressure (altimeter): 29.09 in. Hg (0985 hPa)
ob: ESST 291950Z AUTO 21011G23KT 160V250 9999 OVC016/// 06/03 Q0985
cycle: 20

Station Type Date Time Source
ESST TAF UTC NOAA

Error!

Example: see airport list